Alexandria International Airport Alexandria US
ICAO: KAEX
IATA: AEX
Category: Medium
Scheduled Services: Yes

Elevation: 89 ft
TransAlt. 18000 ft.

Airport Communications:
POLK APP/DEP:132.05
ASOS:123.975
CLNC DEL:121.9
CTAF:127.35
GND:121.9
TWR:127.35

KAEX Zoom In..

Runways:

(A) RW 14 length 9352 ft width 150 ft
ILS 110.10 / hdg 141

(B) RW 18 length 7001 ft width 150 ft
---- / hdg 186

(C) RW 32 length 9352 ft width 150 ft
ILS 110.10 / hdg 321

(D) RW 36 length 7001 ft width 150 ft
---- / hdg 6

Location; KAEX
Day. 20 / Time. 10.53 Zulu
* Altimeter: 30.02
* Temperature: 21° c. 69.8°f.
* Wind from: 000° Speed 00 kn.
Dewpoint: 20° c.
Visibility: 7 Statute Miles.
Clouds: Clear (automated report).
Conditions: Light Rain.

KAEX 201053Z 00000KT 7SM -RA CLR 21/20 A3002 RMK AO2 RAB42 SLP166 P0000 T02110200


Wind - Calm.

 
 
jpsmedia.com for Web Design SOUNDCLOUD worldairports.se 2018   terms of use